Juniper Hills, California
Current Conditions -  °F | °C
As of 11:53 AM on Sunday 25 Jan 2015 (Local Time) from KPMD Reporting Station
Clear Clear  
Wind Chill: 65°   Ceiling: Unl
Heat Index: 65°   Visibility: 10mi
Dew Point: 30°   Wind: 14mph
Humidity: 27%   Direction: 60°ENE
Pressure: 30.18"   Gusts: NA
Location:  34.4844°N, 117.91°W
Report Text: KPMD 251953Z AUTO 06012KT 10SM CLR 18/M01 A3018 RMK AO2 SLP214 T01831011
Loading
Personal Weather Stations






























Interactive Weather Map New forecast layout! Learn more

10-Day Weather Forecast

Advertisements
Track Severe Weather on mobile